Time;durP1;ratioP1;P1;durP2;ratioP2;P2;SDS_P1;SDS_P2;PMS_P1;PMS_P2;Temp;Humidity;BMP_temperature;BMP_pressure;BME280_temperature;BME280_humidity;BME280_pressure;Samples;Min_cycle;Max_cycle;Signal;HPM_P1;HPM_P2
2022/11/29 00:00:35;;;;;;;2.45;1.00;;;;;;;3.77;100.00;92643.38;2089587;28;20653;-75
2022/11/29 00:01:37;;;;;;;1.90;1.00;;;;;;;3.72;100.00;92638.50;2089782;28;20028;-76
2022/11/29 00:02:38;;;;;;;1.20;1.00;;;;;;;3.71;100.00;92644.19;2088492;28;20036;-75
2022/11/29 00:03:39;;;;;;;1.23;0.90;;;;;;;3.69;100.00;92643.81;2089424;28;20513;-75
2022/11/29 00:04:40;;;;;;;2.20;1.10;;;;;;;3.68;100.00;92640.41;2089611;28;20475;-76
2022/11/29 00:05:41;;;;;;;1.55;1.10;;;;;;;3.67;100.00;92646.84;2089445;28;20109;-76
2022/11/29 00:06:42;;;;;;;1.10;1.00;;;;;;;3.72;100.00;92643.03;2083394;28;20423;-75
2022/11/29 00:07:43;;;;;;;2.55;1.10;;;;;;;3.70;100.00;92640.78;2081253;28;20072;-76
2022/11/29 00:08:45;;;;;;;1.60;1.30;;;;;;;3.69;100.00;92644.56;2081486;28;20084;-75
2022/11/29 00:09:46;;;;;;;1.38;1.27;;;;;;;3.67;100.00;92638.16;2080496;28;20029;-76
2022/11/29 00:10:48;;;;;;;2.97;1.20;;;;;;;3.67;100.00;92638.91;2080374;28;20033;-75
2022/11/29 00:13:08;;;;;;;1.50;1.23;;;;;;;3.63;100.00;92640.06;2082802;28;20372;-76
2022/11/29 00:14:12;;;;;;;2.20;1.00;;;;;;;3.69;100.00;92647.22;2089231;28;20360;-76
2022/11/29 00:15:14;;;;;;;1.40;1.15;;;;;;;3.72;100.00;92643.78;2088962;28;20027;-76
2022/11/29 00:16:15;;;;;;;2.28;1.20;;;;;;;3.71;100.00;92647.56;2088659;28;20028;-75
2022/11/29 00:17:16;;;;;;;1.92;1.48;;;;;;;3.71;100.00;92646.81;2089422;28;20028;-75
2022/11/29 00:18:18;;;;;;;2.85;1.08;;;;;;;3.74;100.00;92646.81;2088852;28;20028;-76
2022/11/29 00:19:19;;;;;;;1.63;1.40;;;;;;;3.74;100.00;92643.44;2088394;28;20028;-75
2022/11/29 00:20:20;;;;;;;2.05;1.10;;;;;;;3.70;100.00;92645.31;2089609;28;20047;-75
2022/11/29 00:21:21;;;;;;;1.98;1.02;;;;;;;3.68;100.00;92643.06;2089298;28;20037;-75
2022/11/29 00:22:24;;;;;;;3.03;1.30;;;;;;;3.70;100.00;92647.97;2089132;28;20052;-75
2022/11/29 00:23:25;;;;;;;1.40;1.20;;;;;;;3.66;100.00;92647.97;2089398;28;20033;-75
2022/11/29 00:24:26;;;;;;;1.50;1.30;;;;;;;3.72;100.00;92643.03;2088779;28;20029;-75
2022/11/29 00:25:27;;;;;;;2.00;1.40;;;;;;;3.71;100.00;92652.13;2088951;28;20501;-75
2022/11/29 00:26:28;;;;;;;3.88;1.83;;;;;;;3.69;100.00;92646.47;2088752;28;20029;-75
2022/11/29 00:27:29;;;;;;;2.88;1.42;;;;;;;3.70;100.00;92643.44;2089934;28;20048;-75
2022/11/29 00:28:31;;;;;;;2.20;1.30;;;;;;;3.67;100.00;92646.09;2089466;28;20028;-76
2022/11/29 00:29:32;;;;;;;3.08;1.60;;;;;;;3.67;100.00;92654.75;2088633;28;20052;-75
2022/11/29 00:30:33;;;;;;;1.23;1.20;;;;;;;3.68;100.00;92650.97;2090052;28;20116;-76
2022/11/29 00:31:34;;;;;;;4.25;1.70;;;;;;;3.66;100.00;92645.34;2089790;28;20032;-75
2022/11/29 00:32:35;;;;;;;4.43;1.70;;;;;;;3.66;100.00;92647.22;2089737;28;20477;-77
2022/11/29 00:33:36;;;;;;;2.42;1.70;;;;;;;3.63;100.00;92650.63;2089479;28;20036;-77
2022/11/29 00:34:37;;;;;;;3.28;1.63;;;;;;;3.64;100.00;92646.84;2088389;28;20037;-76
2022/11/29 00:35:38;;;;;;;1.48;1.38;;;;;;;3.60;100.00;92643.47;2089334;28;20108;-76
2022/11/29 00:36:40;;;;;;;3.17;1.80;;;;;;;3.55;100.00;92639.31;2083364;28;20037;-76
2022/11/29 00:37:41;;;;;;;1.77;1.60;;;;;;;3.68;100.00;92648.34;2081177;28;20080;-76
2022/11/29 00:38:42;;;;;;;2.80;1.65;;;;;;;3.74;100.00;92643.44;2081208;28;20037;-76
2022/11/29 00:39:43;;;;;;;4.55;1.73;;;;;;;3.68;100.00;92644.94;2083139;28;20071;-77
2022/11/29 00:40:49;;;;;;;2.92;1.33;;;;;;;3.64;100.00;92636.28;2088606;28;20479;-76
2022/11/29 00:41:50;;;;;;;5.28;2.10;;;;;;;3.54;100.00;92633.28;2088192;28;20021;-76
2022/11/29 00:42:51;;;;;;;1.80;1.35;;;;;;;3.52;100.00;92635.56;2089146;28;20798;-76
2022/11/29 00:43:53;;;;;;;2.58;1.40;;;;;;;3.48;100.00;92639.34;2089578;28;20094;-76
2022/11/29 00:44:54;;;;;;;4.95;1.38;;;;;;;3.48;100.00;92632.19;2088493;28;20505;-76
2022/11/29 00:45:55;;;;;;;2.13;1.35;;;;;;;3.43;100.00;92637.88;2089399;28;20104;-76
2022/11/29 00:46:56;;;;;;;4.93;1.70;;;;;;;3.37;100.00;92643.91;2088604;28;20044;-76
2022/11/29 00:47:57;;;;;;;4.65;1.83;;;;;;;3.39;100.00;92636.38;2089119;28;20041;-76
2022/11/29 00:48:58;;;;;;;2.47;1.70;;;;;;;3.37;100.00;92639.38;2089142;28;20056;-76
2022/11/29 00:49:59;;;;;;;1.55;1.30;;;;;;;3.34;100.00;92634.88;2088850;28;20052;-76
2022/11/29 00:51:01;;;;;;;2.42;1.73;;;;;;;3.36;100.00;92642.41;2094194;28;20055;-76
2022/11/29 00:52:02;;;;;;;1.85;1.63;;;;;;;3.36;100.00;92643.16;2081045;28;20037;-76
2022/11/29 00:53:03;;;;;;;1.70;1.30;;;;;;;3.34;100.00;92640.16;2080669;28;20021;-76
2022/11/29 00:54:05;;;;;;;1.48;1.20;;;;;;;3.33;100.00;92635.97;2080107;28;20033;-76
2022/11/29 00:55:06;;;;;;;4.13;1.40;;;;;;;3.33;100.00;92635.97;2080880;28;20021;-76
2022/11/29 00:56:08;;;;;;;4.47;1.20;;;;;;;3.31;100.00;92632.97;2088028;28;20028;-76
2022/11/29 00:57:08;;;;;;;2.70;1.40;;;;;;;3.31;100.00;92635.63;2088322;28;20036;-76
2022/11/29 00:58:10;;;;;;;4.13;1.33;;;;;;;3.27;100.00;92640.91;2089355;28;20021;-76
2022/11/29 00:59:10;;;;;;;3.28;1.15;;;;;;;3.28;100.00;92639.03;2087617;28;20446;-76
2022/11/29 01:00:12;;;;;;;5.45;1.65;;;;;;;3.24;100.00;92640.91;2087233;28;20082;-77
2022/11/29 01:01:14;;;;;;;4.30;1.60;;;;;;;3.21;100.00;92650.38;2088162;28;20041;-76
2022/11/29 01:02:15;;;;;;;2.15;1.55;;;;;;;3.15;100.00;92641.31;2088489;28;20036;-76
2022/11/29 01:03:16;;;;;;;1.33;1.20;;;;;;;3.16;100.00;92642.84;2089379;28;20031;-76
2022/11/29 01:04:18;;;;;;;3.10;1.42;;;;;;;3.18;100.00;92637.16;2089138;28;20025;-76
2022/11/29 01:05:19;;;;;;;1.33;1.10;;;;;;;3.19;100.00;92643.94;2088774;28;20033;-76
2022/11/29 01:06:20;;;;;;;2.63;1.35;;;;;;;3.22;100.00;92635.28;2085063;28;20145;-76
2022/11/29 01:07:21;;;;;;;3.08;1.20;;;;;;;3.21;100.00;92641.69;2081012;28;20037;-77
2022/11/29 01:08:22;;;;;;;2.00;1.20;;;;;;;3.21;100.00;92642.44;2082957;28;20064;-77
2022/11/29 01:09:23;;;;;;;1.58;1.30;;;;;;;3.22;100.00;92637.91;2089229;28;20251;-77
2022/11/29 01:10:24;;;;;;;2.72;1.30;;;;;;;3.20;100.00;92640.16;2088755;28;20037;-77
2022/11/29 01:11:26;;;;;;;2.10;1.30;;;;;;;3.19;100.00;92643.94;2088331;28;20044;-77
2022/11/29 01:12:27;;;;;;;2.70;1.42;;;;;;;3.22;100.00;92645.84;2088066;28;20112;-77
2022/11/29 01:13:28;;;;;;;3.70;1.40;;;;;;;3.21;100.00;92646.97;2088471;28;20029;-76
2022/11/29 01:14:29;;;;;;;1.13;1.02;;;;;;;3.19;100.00;92644.69;2089100;28;20029;-76
2022/11/29 01:15:31;;;;;;;2.00;1.20;;;;;;;3.25;100.00;92648.47;2088414;28;20075;-76
2022/11/29 01:16:32;;;;;;;3.60;1.38;;;;;;;3.25;100.00;92640.56;2086814;28;20544;-76
2022/11/29 01:17:35;;;;;;;6.28;2.35;;;;;;;3.43;100.00;92651.06;2088880;28;20068;-76
2022/11/29 01:18:36;;;;;;;2.92;1.70;;;;;;;3.46;100.00;92654.81;2089210;28;20158;-76
2022/11/29 01:19:37;;;;;;;1.65;1.40;;;;;;;3.41;100.00;92645.41;2089260;28;20021;-76
2022/11/29 01:20:38;;;;;;;6.65;1.73;;;;;;;3.40;100.00;92643.91;2088912;28;20040;-76
2022/11/29 01:21:40;;;;;;;1.85;1.48;;;;;;;3.41;100.00;92649.94;2087457;28;20025;-75
2022/11/29 01:22:41;;;;;;;2.17;1.60;;;;;;;3.41;100.00;92649.94;2079982;28;20037;-76
2022/11/29 01:23:43;;;;;;;3.13;1.60;;;;;;;3.39;100.00;92649.56;2088573;28;20463;-77
2022/11/29 01:24:44;;;;;;;3.55;1.60;;;;;;;3.47;100.00;92643.91;2080280;28;20048;-77
2022/11/29 01:25:45;;;;;;;3.97;1.60;;;;;;;3.41;100.00;92650.69;2072102;28;20034;-77
2022/11/29 01:26:46;;;;;;;7.00;1.65;;;;;;;3.40;100.00;92649.19;2087492;28;20029;-77
2022/11/29 01:27:47;;;;;;;6.55;1.80;;;;;;;3.38;100.00;92648.81;2080251;28;20464;-77
2022/11/29 01:28:50;;;;;;;2.45;1.60;;;;;;;3.38;100.00;92643.53;2088230;28;20017;-77
2022/11/29 01:29:51;;;;;;;3.10;1.38;;;;;;;3.46;100.00;92646.91;2088134;28;20025;-77
2022/11/29 01:30:52;;;;;;;3.17;1.83;;;;;;;3.43;100.00;92643.16;2081053;28;20035;-77
2022/11/29 01:31:53;;;;;;;3.30;1.83;;;;;;;3.63;100.00;92645.34;2080964;28;20029;-77
2022/11/29 01:32:54;;;;;;;3.60;1.80;;;;;;;3.61;100.00;92645.75;2088749;28;20048;-76
2022/11/29 01:33:58;;;;;;;2.85;1.63;;;;;;;3.54;100.00;92643.84;2089278;28;20056;-78
2022/11/29 01:34:59;;;;;;;4.10;1.67;;;;;;;3.56;100.00;92645.34;2088312;28;20029;-77
2022/11/29 01:36:00;;;;;;;5.30;1.90;;;;;;;3.53;100.00;92647.63;2088395;28;20028;-77
2022/11/29 01:37:01;;;;;;;5.13;1.90;;;;;;;3.48;100.00;92644.66;2088874;28;20037;-76
2022/11/29 01:38:02;;;;;;;3.08;2.00;;;;;;;3.50;100.00;92645.75;2088608;28;20029;-76
2022/11/29 01:39:05;;;;;;;7.75;2.33;;;;;;;3.49;100.00;92643.50;2089190;28;20039;-76
2022/11/29 01:40:06;;;;;;;7.50;2.50;;;;;;;3.64;100.00;92647.59;2090042;28;20021;-76
2022/11/29 01:41:19;;;;;;;5.70;2.30;;;;;;;3.63;100.00;92646.09;2089405;28;20031;-76
2022/11/29 01:42:20;;;;;;;11.68;2.53;;;;;;;3.58;100.00;92641.22;2088461;28;20032;-76
2022/11/29 01:43:22;;;;;;;6.20;2.33;;;;;;;3.59;100.00;92642.72;2089261;28;20131;-76
2022/11/29 01:44:23;;;;;;;8.82;2.28;;;;;;;3.59;100.00;92647.25;2089176;28;20059;-76
2022/11/29 01:45:25;;;;;;;6.43;2.13;;;;;;;3.75;100.00;92648.31;2089092;28;21046;-76
2022/11/29 01:46:28;;;;;;;5.25;2.05;;;;;;;3.69;100.00;92641.19;2088739;28;20111;-75
2022/11/29 01:47:30;;;;;;;9.65;2.63;;;;;;;3.60;100.00;92646.09;2088905;28;20079;-76
2022/11/29 01:48:32;;;;;;;5.50;2.58;;;;;;;3.58;100.00;92646.50;2088208;28;20036;-77
2022/11/29 01:49:38;;;;;;;8.15;2.42;;;;;;;3.53;100.00;92642.34;2088515;28;20071;-76
2022/11/29 01:50:40;;;;;;;5.82;2.20;;;;;;;3.51;100.00;92646.50;2088967;28;20097;-76
2022/11/29 01:51:59;;;;;;;4.65;2.53;;;;;;;3.49;100.00;92646.16;2088821;28;20111;-76
2022/11/29 01:53:02;;;;;;;8.52;2.50;;;;;;;3.47;100.00;92645.78;2088269;28;20032;-76
2022/11/29 01:54:04;;;;;;;8.60;2.58;;;;;;;3.44;100.00;92639.38;2088339;28;20041;-77
2022/11/29 01:55:08;;;;;;;10.07;2.33;;;;;;;3.57;100.00;92638.97;2079677;28;20024;-76
2022/11/29 01:56:13;;;;;;;11.45;3.20;;;;;;;3.54;100.00;92643.09;2080555;28;20029;-76
2022/11/29 01:57:15;;;;;;;6.50;2.53;;;;;;;3.44;100.00;92641.25;2088169;28;20107;-76
2022/11/29 01:58:16;;;;;;;3.58;2.20;;;;;;;3.50;100.00;92637.81;2087581;28;20021;-76
2022/11/29 01:59:24;;;;;;;5.22;2.35;;;;;;;3.46;100.00;92642.38;2088793;28;20410;-76
2022/11/29 02:00:25;;;;;;;8.32;2.33;;;;;;;3.42;100.00;92638.22;2088329;28;20036;-76
2022/11/29 02:01:26;;;;;;;7.70;2.42;;;;;;;3.46;100.00;92639.72;2088526;28;20024;-76
2022/11/29 02:02:32;;;;;;;8.38;1.98;;;;;;;3.42;100.00;92646.16;2079987;28;20056;-76
2022/11/29 02:03:32;;;;;;;6.97;2.10;;;;;;;3.34;100.00;92644.69;2080115;28;20087;-76
2022/11/29 02:04:35;;;;;;;7.97;2.20;;;;;;;3.51;100.00;92642.00;2088691;28;20102;-76
2022/11/29 02:05:43;;;;;;;8.77;2.08;;;;;;;3.51;100.00;92638.56;2088852;28;20083;-76
2022/11/29 02:06:44;;;;;;;9.35;1.85;;;;;;;3.41;100.00;92639.38;2082305;28;20167;-76
2022/11/29 02:07:50;;;;;;;4.68;1.88;;;;;;;3.34;100.00;92631.47;2079868;28;20022;-76
2022/11/29 02:08:51;;;;;;;7.85;1.73;;;;;;;3.40;100.00;92638.63;2080105;28;20363;-76
2022/11/29 02:09:52;;;;;;;5.55;1.60;;;;;;;3.34;100.00;92640.16;2080474;28;20040;-76
2022/11/29 02:11:15;;;;;;;6.32;1.60;;;;;;;3.24;100.00;92636.38;2080716;28;20041;-75
2022/11/29 02:12:36;;;;;;;6.85;1.77;;;;;;;3.18;100.00;92645.09;2080600;28;20037;-75
2022/11/29 02:13:53;;;;;;;5.10;2.00;;;;;;;3.17;100.00;92628.50;2082792;28;20032;-76
2022/11/29 02:17:11;;;;;;;;;;;;;;;3.02;100.00;92637.56;2147814;27;20538;-77
2022/11/29 02:18:16;;;;;;;8.73;1.60;;;;;;;2.93;100.00;92635.28;2147488;27;19914;-77
2022/11/29 02:19:17;;;;;;;5.88;2.25;;;;;;;2.88;100.00;92634.94;2130564;27;20029;-77
2022/11/29 02:20:48;;;;;;;7.60;1.85;;;;;;;2.82;100.00;92637.22;2139908;27;20072;-76
2022/11/29 02:21:56;;;;;;;5.45;2.25;;;;;;;2.78;100.00;92633.81;2146712;27;20623;-78
2022/11/29 02:23:34;;;;;;;5.70;1.52;;;;;;;2.77;100.00;92635.69;2147249;27;20026;-78
2022/11/29 02:24:40;;;;;;;6.22;1.85;;;;;;;2.77;100.00;92635.69;2141609;27;20034;-77
2022/11/29 02:25:44;;;;;;;6.32;1.60;;;;;;;2.74;100.00;92640.97;2138454;27;20457;-77
2022/11/29 02:27:01;;;;;;;9.10;1.65;;;;;;;2.72;100.00;92635.31;2146505;27;20033;-77
2022/11/29 02:28:05;;;;;;;4.70;1.77;;;;;;;2.71;100.00;92636.44;2146483;27;20046;-78
2022/11/29 02:29:25;;;;;;;3.38;1.45;;;;;;;2.66;100.00;92637.56;2146464;27;20026;-76
2022/11/29 02:30:54;;;;;;;5.72;1.85;;;;;;;2.60;100.00;92635.72;2138291;27;20026;-77
2022/11/29 02:32:19;;;;;;;6.00;2.10;;;;;;;2.56;100.00;92635.69;2138104;27;20030;-77
2022/11/29 02:33:26;;;;;;;6.35;1.75;;;;;;;2.52;100.00;92640.97;2141309;27;20018;-78
2022/11/29 02:34:48;;;;;;;7.38;1.63;;;;;;;2.50;100.00;92637.19;2135061;27;20195;-77
2022/11/29 02:36:14;;;;;;;4.43;1.60;;;;;;;2.43;100.00;92640.59;2137873;27;20042;-77
2022/11/29 02:38:03;;;;;;;16.15;1.80;;;;;;;2.40;100.00;92640.56;2138186;27;20046;-78
2022/11/29 02:39:30;;;;;;;3.22;1.33;;;;;;;2.42;100.00;92636.44;2086026;28;20032;-77
2022/11/29 02:40:34;;;;;;;4.00;1.58;;;;;;;2.44;100.00;92639.44;2089390;28;20368;-77
2022/11/29 02:42:01;;;;;;;4.05;1.40;;;;;;;2.42;100.00;92635.69;2128773;27;20046;-76
2022/11/29 02:43:15;;;;;;;8.85;1.60;;;;;;;2.38;100.00;92635.69;2137975;27;20419;-77
2022/11/29 02:44:48;;;;;;;3.85;1.50;;;;;;;2.38;100.00;92637.56;2138008;27;20014;-77
2022/11/29 02:46:10;;;;;;;6.03;1.58;;;;;;;2.31;100.00;92634.91;2137497;27;20033;-76
2022/11/29 02:48:05;;;;;;;4.20;1.45;;;;;;;2.25;100.00;92637.19;2138116;27;20026;-78
2022/11/29 02:49:18;;;;;;;5.15;1.35;;;;;;;2.17;100.00;92636.41;2102703;28;20024;-77
2022/11/29 02:50:49;;;;;;;2.88;1.33;;;;;;;2.16;100.00;92636.78;2102902;28;20449;-79
2022/11/29 02:52:02;;;;;;;5.43;1.45;;;;;;;2.14;100.00;92645.06;2104457;28;20115;-77
2022/11/29 02:53:49;;;;;;;3.13;1.20;;;;;;;2.11;100.00;92639.75;2095648;28;20726;-76
2022/11/29 02:55:23;;;;;;;6.15;1.30;;;;;;;2.04;100.00;92645.03;2102226;27;20113;-77
2022/11/29 02:56:33;;;;;;;5.25;1.60;;;;;;;2.00;100.00;92642.38;2105784;27;20093;-78
2022/11/29 02:57:55;;;;;;;3.25;1.40;;;;;;;2.01;100.00;92651.78;2146854;27;20029;-78
2022/11/29 02:59:28;;;;;;;6.80;1.30;;;;;;;2.03;100.00;92646.16;2146229;27;20471;-78
2022/11/29 03:00:34;;;;;;;3.25;1.23;;;;;;;2.04;100.00;92643.16;2106054;28;20047;-77
2022/11/29 03:01:57;;;;;;;4.57;1.30;;;;;;;1.99;100.00;92646.16;2138583;27;20061;-78
2022/11/29 03:03:26;;;;;;;7.25;1.40;;;;;;;1.97;100.00;92643.88;2139257;27;20368;-79
2022/11/29 03:04:38;;;;;;;6.88;1.42;;;;;;;1.97;100.00;92648.41;2136754;27;20499;-78
2022/11/29 03:06:00;;;;;;;6.35;1.65;;;;;;;1.91;100.00;92644.63;2138700;27;20491;-78
2022/11/29 03:07:09;;;;;;;3.60;1.17;;;;;;;1.92;100.00;92656.66;2128468;27;20444;-77
2022/11/29 03:08:34;;;;;;;3.78;1.40;;;;;;;1.92;100.00;92652.16;2136166;27;20042;-78
2022/11/29 03:09:48;;;;;;;2.03;0.98;;;;;;;1.94;100.00;92647.28;2146511;27;20041;-79
2022/11/29 03:11:06;;;;;;;3.60;1.10;;;;;;;1.89;100.00;92650.28;2146031;27;20180;-78
2022/11/29 03:12:20;;;;;;;4.78;1.10;;;;;;;1.74;100.00;92652.09;2140292;27;20033;-78
2022/11/29 03:13:43;;;;;;;6.75;1.30;;;;;;;1.75;100.00;92650.22;2137932;27;20452;-78
2022/11/29 03:15:15;;;;;;;2.15;1.10;;;;;;;1.78;100.00;92657.38;2137682;27;20121;-76
2022/11/29 03:16:28;;;;;;;6.97;1.30;;;;;;;1.67;100.00;92653.97;2137288;27;20053;-76
2022/11/29 03:17:29;;;;;;;2.58;1.15;;;;;;;1.64;100.00;92659.97;2144201;27;20113;-77
2022/11/29 03:18:49;;;;;;;3.28;1.30;;;;;;;1.65;100.00;92656.94;2146357;27;20030;-77
2022/11/29 03:20:07;;;;;;;3.65;1.30;;;;;;;1.65;100.00;92654.31;2146382;27;20037;-77
2022/11/29 03:21:34;;;;;;;2.65;1.05;;;;;;;1.65;100.00;92651.69;2146325;27;20547;-77
2022/11/29 03:22:51;;;;;;;2.53;1.00;;;;;;;1.65;100.00;92661.47;2139550;27;20369;-77
2022/11/29 03:23:56;;;;;;;3.50;1.08;;;;;;;1.65;100.00;92662.22;2137549;27;20030;-76
2022/11/29 03:24:59;;;;;;;3.63;1.23;;;;;;;1.67;100.00;92662.63;2137328;27;20038;-76
2022/11/29 03:26:22;;;;;;;3.15;1.15;;;;;;;1.67;100.00;92659.22;2143141;27;20585;-77
2022/11/29 03:27:37;;;;;;;3.92;1.20;;;;;;;1.63;100.00;92666.38;2143505;27;20030;-77
2022/11/29 03:28:54;;;;;;;4.95;0.90;;;;;;;1.61;100.00;92661.44;2131833;27;20132;-76
2022/11/29 03:29:59;;;;;;;3.20;1.10;;;;;;;1.61;100.00;92663.31;2122373;27;20023;-77
2022/11/29 03:31:10;;;;;;;3.55;1.10;;;;;;;1.60;100.00;92667.84;2122979;27;20038;-77
2022/11/29 03:32:27;;;;;;;2.67;1.20;;;;;;;1.62;100.00;92665.59;2131866;27;20144;-78
2022/11/29 03:33:41;;;;;;;9.77;1.23;;;;;;;1.62;100.00;92667.47;2132001;27;20030;-77
2022/11/29 03:34:51;;;;;;;2.67;1.00;;;;;;;1.57;100.00;92660.69;2131880;27;20099;-77
2022/11/29 03:36:00;;;;;;;3.40;1.20;;;;;;;1.60;100.00;92673.13;2131513;27;20026;-77
2022/11/29 03:37:19;;;;;;;4.38;1.50;;;;;;;1.61;100.00;92666.72;2131753;27;20555;-76
2022/11/29 03:38:39;;;;;;;3.05;1.30;;;;;;;1.57;100.00;92670.47;2131734;27;20023;-77
2022/11/29 03:39:43;;;;;;;3.95;1.15;;;;;;;1.56;100.00;92677.59;2122726;27;20027;-77
2022/11/29 03:40:53;;;;;;;3.63;1.42;;;;;;;1.50;100.00;92674.56;2125984;27;20039;-78
2022/11/29 03:42:01;;;;;;;2.75;1.20;;;;;;;1.52;100.00;92682.84;2136462;27;20034;-78
2022/11/29 03:43:12;;;;;;;5.43;1.13;;;;;;;1.48;100.00;92681.31;2131827;27;20038;-78
2022/11/29 03:44:27;;;;;;;4.50;1.45;;;;;;;1.50;100.00;92681.72;2131781;27;20026;-78
2022/11/29 03:45:43;;;;;;;5.40;1.02;;;;;;;1.58;100.00;92682.50;2131940;27;20051;-76
2022/11/29 03:47:21;;;;;;;4.97;1.08;;;;;;;1.60;100.00;92677.63;2131635;27;20035;-76
2022/11/29 03:48:33;;;;;;;4.30;1.10;;;;;;;1.61;100.00;92687.03;2134191;27;20038;-76
2022/11/29 03:49:42;;;;;;;2.58;1.27;;;;;;;1.63;100.00;92688.19;2131031;27;20031;-76
2022/11/29 03:50:51;;;;;;;3.60;1.23;;;;;;;1.63;100.00;92690.81;2132677;27;20501;-76
2022/11/29 03:52:07;;;;;;;3.25;1.13;;;;;;;1.65;100.00;92690.44;2131092;27;20498;-76
2022/11/29 03:53:50;;;;;;;2.70;1.30;;;;;;;1.64;100.00;92686.31;2130319;27;20038;-76
2022/11/29 03:55:12;;;;;;;3.08;1.00;;;;;;;1.68;100.00;92685.19;2103415;27;20091;-78
2022/11/29 03:56:30;;;;;;;1.42;1.08;;;;;;;1.62;100.00;92694.56;2122499;27;20090;-78
2022/11/29 03:58:00;;;;;;;9.45;1.30;;;;;;;1.56;100.00;92693.41;2125166;27;20034;-77
2022/11/29 03:59:21;;;;;;;5.88;1.27;;;;;;;1.56;100.00;92693.41;2122667;27;20027;-77
2022/11/29 04:00:23;;;;;;;5.65;1.23;;;;;;;1.60;100.00;92693.44;2116891;27;20097;-76
2022/11/29 04:01:42;;;;;;;3.08;1.25;;;;;;;1.62;100.00;92686.66;2122616;27;20027;-78
2022/11/29 04:02:55;;;;;;;3.25;0.82;;;;;;;1.64;100.00;92694.97;2131963;27;20035;-78
2022/11/29 04:04:05;;;;;;;4.05;1.08;;;;;;;1.61;100.00;92692.31;2139673;27;20026;-76
2022/11/29 04:05:20;;;;;;;5.15;1.20;;;;;;;1.60;100.00;92696.06;2142556;27;20466;-77
2022/11/29 04:06:33;;;;;;;2.90;1.30;;;;;;;1.64;100.00;92696.84;2140973;27;20026;-79
2022/11/29 04:07:37;;;;;;;5.05;1.52;;;;;;;1.74;100.00;92691.59;2140868;27;20034;-78
2022/11/29 04:08:47;;;;;;;7.55;2.70;;;;;;;1.85;100.00;92702.22;2138458;27;20034;-78
2022/11/29 04:10:11;;;;;;;4.72;1.88;;;;;;;1.85;100.00;92690.91;2131916;27;20041;-79
2022/11/29 04:11:26;;;;;;;5.75;1.52;;;;;;;1.70;100.00;92700.63;2131731;27;20038;-78
2022/11/29 04:12:53;;;;;;;3.95;1.25;;;;;;;1.74;100.00;92688.22;2131184;27;20029;-79
2022/11/29 04:14:40;;;;;;;5.78;2.00;;;;;;;1.69;100.00;92697.22;2133230;27;20051;-77
2022/11/29 04:16:34;;;;;;;4.47;1.17;;;;;;;1.69;100.00;92697.22;2096486;28;20905;-79
2022/11/29 04:17:41;;;;;;;7.28;1.00;;;;;;;1.69;100.00;92701.75;2096147;28;20115;-76
2022/11/29 04:19:40;;;;;;;2.08;0.88;;;;;;;1.60;100.00;92696.81;2097119;28;20036;-76
2022/11/29 04:20:49;;;;;;;6.93;1.13;;;;;;;1.59;100.00;92699.84;2096501;28;20074;-77
2022/11/29 04:22:21;;;;;;;3.33;1.10;;;;;;;1.60;100.00;92701.34;2096691;28;20056;-76
2022/11/29 04:23:43;;;;;;;4.43;1.50;;;;;;;1.62;100.00;92697.19;2096606;28;20025;-76
2022/11/29 04:25:06;;;;;;;4.45;1.00;;;;;;;1.58;100.00;92688.53;2101708;28;20612;-76
2022/11/29 04:26:10;;;;;;;2.50;0.95;;;;;;;1.66;100.00;92699.84;2099408;27;20126;-78
2022/11/29 04:27:17;;;;;;;1.52;1.13;;;;;;;1.83;100.00;92699.16;2131764;27;20037;-78
2022/11/29 04:28:45;;;;;;;2.25;1.35;;;;;;;1.81;100.00;92698.81;2131862;27;20118;-76
2022/11/29 04:30:07;;;;;;;4.68;1.17;;;;;;;1.72;100.00;92701.03;2131925;27;20029;-77
2022/11/29 04:31:33;;;;;;;3.72;1.30;;;;;;;1.64;100.00;92699.47;2131804;27;20061;-76
2022/11/29 04:32:42;;;;;;;7.65;1.48;;;;;;;1.56;100.00;92703.94;2131730;27;20023;-75
2022/11/29 04:34:02;;;;;;;2.58;1.45;;;;;;;1.58;100.00;92699.06;2131686;27;20413;-76
2022/11/29 04:35:18;;;;;;;2.50;1.30;;;;;;;1.51;100.00;92701.66;2131357;27;20143;-76
2022/11/29 04:36:47;;;;;;;2.67;1.20;;;;;;;1.56;100.00;92705.81;2130551;27;20038;-76
2022/11/29 04:38:25;;;;;;;1.52;1.00;;;;;;;1.52;100.00;92706.56;2131389;27;20652;-75
2022/11/29 04:39:42;;;;;;;1.00;0.80;;;;;;;1.45;100.00;92706.53;2131605;27;20019;-76
2022/11/29 04:41:12;;;;;;;5.90;1.00;;;;;;;1.53;100.00;92709.94;2132306;27;20039;-76
2022/11/29 04:42:16;;;;;;;;;;;;;;;1.47;100.00;92712.16;2132678;27;20037;-76
2022/11/29 04:43:51;;;;;;;2.63;1.05;;;;;;;1.46;100.00;92709.91;2131110;27;19922;-76
2022/11/29 04:45:16;;;;;;;1.35;1.08;;;;;;;1.45;100.00;92709.16;2131476;27;20117;-76
2022/11/29 04:46:45;;;;;;;2.97;1.08;;;;;;;1.37;100.00;92718.16;2131189;27;20705;-76
2022/11/29 04:47:53;;;;;;;3.67;1.13;;;;;;;1.30;100.00;92715.44;2131419;27;20352;-76
2022/11/29 04:49:32;;;;;;;3.03;1.05;;;;;;;1.38;100.00;92716.25;2130898;27;20018;-76
2022/11/29 04:51:04;;;;;;;4.55;1.33;;;;;;;1.30;100.00;92723.34;2104649;28;20035;-75
2022/11/29 04:52:41;;;;;;;4.78;1.10;;;;;;;1.30;100.00;92712.06;2139916;27;20440;-75
2022/11/29 04:54:08;;;;;;;1.48;0.90;;;;;;;1.36;100.00;92716.63;2128629;27;20365;-75
2022/11/29 04:55:33;;;;;;;4.38;1.25;;;;;;;1.33;100.00;92721.88;2128260;27;20030;-76
2022/11/29 04:56:39;;;;;;;1.38;0.93;;;;;;;1.35;100.00;92717.75;2131865;27;20023;-76
2022/11/29 04:58:36;;;;;;;6.93;1.33;;;;;;;1.35;100.00;92720.38;2131422;27;20091;-76
2022/11/29 04:59:55;;;;;;;4.32;1.23;;;;;;;1.33;100.00;92720.00;2114446;27;20032;-75
2022/11/29 05:01:31;;;;;;;4.20;1.48;;;;;;;1.28;100.00;92720.34;2131039;27;20086;-76
2022/11/29 05:02:46;;;;;;;3.33;1.30;;;;;;;1.32;100.00;92720.34;2130756;27;20026;-76
2022/11/29 05:03:53;;;;;;;3.38;1.70;;;;;;;1.34;100.00;92720.75;2126989;27;20054;-76
2022/11/29 05:05:17;;;;;;;7.18;1.67;;;;;;;1.36;100.00;92724.53;2131628;27;20027;-76
2022/11/29 05:06:42;;;;;;;3.58;1.92;;;;;;;1.32;100.00;92734.28;2130949;27;20767;-76
2022/11/29 05:07:58;;;;;;;2.90;1.85;;;;;;;1.28;100.00;92730.88;2130905;27;20034;-76
2022/11/29 05:09:09;;;;;;;3.58;1.92;;;;;;;1.30;100.00;92725.97;2130516;27;20451;-76
2022/11/29 05:10:29;;;;;;;3.10;2.50;;;;;;;1.34;100.00;92726.75;2131253;27;20041;-75
2022/11/29 05:12:02;;;;;;;2.10;1.90;;;;;;;1.27;100.00;92737.25;2122694;27;20059;-76
2022/11/29 05:13:19;;;;;;;3.88;1.77;;;;;;;1.29;100.00;92729.75;2134303;27;20041;-76
2022/11/29 05:14:28;;;;;;;3.08;1.58;;;;;;;1.33;100.00;92732.41;2121921;27;20027;-76
2022/11/29 05:15:51;;;;;;;2.20;1.50;;;;;;;1.35;100.00;92724.88;2115124;27;20028;-76
2022/11/29 05:17:13;;;;;;;2.22;1.25;;;;;;;1.44;100.00;92727.94;2125270;27;20091;-75
2022/11/29 05:18:44;;;;;;;3.33;1.08;;;;;;;1.58;100.00;92728.06;2137768;27;20026;-76
2022/11/29 05:20:07;;;;;;;3.25;1.48;;;;;;;1.50;100.00;92724.63;2140137;27;20045;-76
2022/11/29 05:21:17;;;;;;;2.50;1.30;;;;;;;1.50;100.00;92731.75;2139528;27;20030;-76
2022/11/29 05:22:39;;;;;;;5.10;1.98;;;;;;;1.48;100.00;92729.47;2139115;27;20101;-75
2022/11/29 05:24:14;;;;;;;3.38;1.52;;;;;;;1.45;100.00;92722.34;2139852;27;20022;-76
2022/11/29 05:25:40;;;;;;;1.90;1.30;;;;;;;1.39;100.00;92731.69;2139364;27;20026;-75
2022/11/29 05:27:06;;;;;;;1.20;1.02;;;;;;;1.36;100.00;92729.03;2098539;27;20049;-76
2022/11/29 05:28:19;;;;;;;2.95;1.63;;;;;;;1.43;100.00;92724.56;2136461;27;20030;-77
2022/11/29 05:29:28;;;;;;;1.92;1.23;;;;;;;1.45;100.00;92729.47;2130285;27;20027;-76
2022/11/29 05:30:51;;;;;;;1.73;1.30;;;;;;;1.39;100.00;92729.06;2131919;27;20027;-75
2022/11/29 05:32:21;;;;;;;2.80;1.60;;;;;;;1.36;100.00;92729.03;2139322;27;20022;-76
2022/11/29 05:33:43;;;;;;;4.53;1.88;;;;;;;1.33;100.00;92729.78;2129523;27;20035;-76
2022/11/29 05:34:50;;;;;;;2.45;1.52;;;;;;;1.36;100.00;92729.81;2133561;27;20073;-76
2022/11/29 05:36:25;;;;;;;4.78;1.40;;;;;;;1.38;100.00;92726.78;2139791;27;20026;-78
2022/11/29 05:37:48;;;;;;;4.47;1.42;;;;;;;1.37;100.00;92728.69;2082604;28;20029;-76
2022/11/29 05:39:08;;;;;;;5.57;1.52;;;;;;;1.37;100.00;92730.56;2121488;27;20027;-76
2022/11/29 05:40:52;;;;;;;3.58;1.30;;;;;;;1.37;100.00;92735.81;2131531;27;20026;-77
2022/11/29 05:42:08;;;;;;;3.72;1.02;;;;;;;1.38;100.00;92739.97;2122457;27;20113;-77
2022/11/29 05:43:15;;;;;;;4.78;1.40;;;;;;;1.37;100.00;92733.94;2135722;27;20074;-76